sensor_id;sensor_type;location;lat;lon;timestamp;pressure;altitude;pressure_sealevel;temperature;humidity
17855;BME280;9053;53.358;6.382;2023-01-29T00:01:38;102821.94;;;5.82;100.00
17855;BME280;9053;53.358;6.382;2023-01-29T00:04:08;102811.38;;;5.80;100.00
17855;BME280;9053;53.358;6.382;2023-01-29T00:06:38;102807.88;;;5.80;100.00
17855;BME280;9053;53.358;6.382;2023-01-29T00:09:08;102815.94;;;5.83;100.00
17855;BME280;9053;53.358;6.382;2023-01-29T00:11:39;102809.94;;;5.84;100.00
17855;BME280;9053;53.358;6.382;2023-01-29T00:14:09;102811.88;;;5.86;100.00
17855;BME280;9053;53.358;6.382;2023-01-29T00:16:42;102817.41;;;5.90;100.00
17855;BME280;9053;53.358;6.382;2023-01-29T00:19:12;102819.34;;;5.92;100.00
17855;BME280;9053;53.358;6.382;2023-01-29T00:21:41;102815.94;;;5.93;100.00
17855;BME280;9053;53.358;6.382;2023-01-29T00:24:12;102805.50;;;5.93;100.00
17855;BME280;9053;53.358;6.382;2023-01-29T00:26:42;102801.97;;;5.93;100.00
17855;BME280;9053;53.358;6.382;2023-01-29T00:29:12;102796.59;;;5.91;100.00
17855;BME280;9053;53.358;6.382;2023-01-29T00:31:46;102799.38;;;5.93;100.00
17855;BME280;9053;53.358;6.382;2023-01-29T00:34:16;102793.22;;;5.92;100.00
17855;BME280;9053;53.358;6.382;2023-01-29T00:36:47;102794.00;;;5.91;100.00
17855;BME280;9053;53.358;6.382;2023-01-29T00:39:17;102782.66;;;5.91;100.00
17855;BME280;9053;53.358;6.382;2023-01-29T00:42:02;102783.44;;;5.90;100.00
17855;BME280;9053;53.358;6.382;2023-01-29T00:44:44;102793.75;;;5.88;100.00
17855;BME280;9053;53.358;6.382;2023-01-29T00:47:28;102779.78;;;5.88;100.00
17855;BME280;9053;53.358;6.382;2023-01-29T00:50:04;102767.50;;;5.86;100.00
17855;BME280;9053;53.358;6.382;2023-01-29T00:52:34;102771.81;;;5.86;100.00
17855;BME280;9053;53.358;6.382;2023-01-29T00:55:08;102771.81;;;5.86;100.00
17855;BME280;9053;53.358;6.382;2023-01-29T00:57:38;102770.91;;;5.85;100.00
17855;BME280;9053;53.358;6.382;2023-01-29T01:00:11;102766.34;;;5.83;100.00
17855;BME280;9053;53.358;6.382;2023-01-29T01:02:45;102773.38;;;5.84;100.00
17855;BME280;9053;53.358;6.382;2023-01-29T01:05:28;102775.88;;;5.82;100.00
17855;BME280;9053;53.358;6.382;2023-01-29T01:07:58;102771.56;;;5.83;100.00
17855;BME280;9053;53.358;6.382;2023-01-29T01:10:30;102774.16;;;5.83;100.00
17855;BME280;9053;53.358;6.382;2023-01-29T01:13:00;102770.66;;;5.82;100.00
17855;BME280;9053;53.358;6.382;2023-01-29T01:15:33;102775.97;;;5.84;100.00
17855;BME280;9053;53.358;6.382;2023-01-29T01:18:06;102772.59;;;5.85;100.00
17855;BME280;9053;53.358;6.382;2023-01-29T01:20:36;102777.03;;;5.86;100.00
17855;BME280;9053;53.358;6.382;2023-01-29T01:23:06;102771.94;;;5.88;100.00
17855;BME280;9053;53.358;6.382;2023-01-29T01:25:36;102778.84;;;5.87;100.00
17855;BME280;9053;53.358;6.382;2023-01-29T01:28:07;102774.56;;;5.88;100.00
17855;BME280;9053;53.358;6.382;2023-01-29T01:30:39;102768.41;;;5.87;100.00
17855;BME280;9053;53.358;6.382;2023-01-29T01:33:21;102772.84;;;5.88;100.00
17855;BME280;9053;53.358;6.382;2023-01-29T01:35:51;102776.22;;;5.87;100.00
17855;BME280;9053;53.358;6.382;2023-01-29T01:38:22;102781.59;;;5.89;100.00
17855;BME280;9053;53.358;6.382;2023-01-29T01:40:52;102785.91;;;5.88;100.00
17855;BME280;9053;53.358;6.382;2023-01-29T01:43:54;102775.47;;;5.88;100.00
17855;BME280;9053;53.358;6.382;2023-01-29T01:46:28;102782.50;;;5.89;100.00
17855;BME280;9053;53.358;6.382;2023-01-29T01:49:09;102778.47;;;5.93;100.00
17855;BME280;9053;53.358;6.382;2023-01-29T01:51:44;102775.84;;;5.93;100.00
17855;BME280;9053;53.358;6.382;2023-01-29T01:54:18;102773.38;;;5.94;100.00
17855;BME280;9053;53.358;6.382;2023-01-29T01:56:52;102770.78;;;5.94;100.00
17855;BME280;9053;53.358;6.382;2023-01-29T01:59:31;102778.63;;;5.94;100.00
17855;BME280;9053;53.358;6.382;2023-01-29T02:02:02;102777.72;;;5.94;100.00
17855;BME280;9053;53.358;6.382;2023-01-29T02:04:48;102787.38;;;5.95;100.00
17855;BME280;9053;53.358;6.382;2023-01-29T02:07:31;102780.47;;;5.95;100.00
17855;BME280;9053;53.358;6.382;2023-01-29T02:10:15;102775.09;;;5.94;100.00
17855;BME280;9053;53.358;6.382;2023-01-29T02:12:46;102770.00;;;5.95;100.00
17855;BME280;9053;53.358;6.382;2023-01-29T02:15:16;102778.75;;;5.96;100.00
17855;BME280;9053;53.358;6.382;2023-01-29T02:17:46;102777.19;;;5.98;100.00
17855;BME280;9053;53.358;6.382;2023-01-29T02:20:22;102773.53;;;5.96;100.00
17855;BME280;9053;53.358;6.382;2023-01-29T02:23:08;102765.56;;;5.94;100.00
17855;BME280;9053;53.358;6.382;2023-01-29T02:26:18;102765.28;;;5.91;100.00
17855;BME280;9053;53.358;6.382;2023-01-29T02:29:01;102759.00;;;5.89;100.00
17855;BME280;9053;53.358;6.382;2023-01-29T02:31:53;102751.97;;;5.88;100.00
17855;BME280;9053;53.358;6.382;2023-01-29T02:34:33;102734.44;;;5.87;100.00
17855;BME280;9053;53.358;6.382;2023-01-29T02:37:24;102746.50;;;5.85;100.00
17855;BME280;9053;53.358;6.382;2023-01-29T02:40:06;102736.81;;;5.84;100.00
17855;BME280;9053;53.358;6.382;2023-01-29T02:42:40;102721.16;;;5.84;100.00
17855;BME280;9053;53.358;6.382;2023-01-29T02:45:19;102710.69;;;5.84;100.00
17855;BME280;9053;53.358;6.382;2023-01-29T02:47:55;102712.53;;;5.85;100.00
17855;BME280;9053;53.358;6.382;2023-01-29T02:50:31;102696.88;;;5.85;100.00
17855;BME280;9053;53.358;6.382;2023-01-29T02:53:07;102687.34;;;5.85;100.00
17855;BME280;9053;53.358;6.382;2023-01-29T02:55:44;102677.41;;;5.81;100.00
17855;BME280;9053;53.358;6.382;2023-01-29T02:58:18;102678.97;;;5.79;100.00
17855;BME280;9053;53.358;6.382;2023-01-29T03:00:54;102669.09;;;5.75;100.00
17855;BME280;9053;53.358;6.382;2023-01-29T03:03:30;102667.13;;;5.73;100.00
17855;BME280;9053;53.358;6.382;2023-01-29T03:06:04;102657.22;;;5.69;100.00
17855;BME280;9053;53.358;6.382;2023-01-29T03:08:49;102665.72;;;5.66;100.00
17855;BME280;9053;53.358;6.382;2023-01-29T03:11:21;102655.16;;;5.64;100.00
17855;BME280;9053;53.358;6.382;2023-01-29T03:13:54;102659.59;;;5.66;100.00
17855;BME280;9053;53.358;6.382;2023-01-29T03:16:33;102655.16;;;5.64;100.00
17855;BME280;9053;53.358;6.382;2023-01-29T03:19:08;102663.75;;;5.63;100.00
17855;BME280;9053;53.358;6.382;2023-01-29T03:21:46;102639.22;;;5.61;100.00
17855;BME280;9053;53.358;6.382;2023-01-29T03:24:39;102646.16;;;5.61;100.00
17855;BME280;9053;53.358;6.382;2023-01-29T03:27:27;102637.28;;;5.59;100.00
17855;BME280;9053;53.358;6.382;2023-01-29T03:30:13;102642.38;;;5.57;100.00
17855;BME280;9053;53.358;6.382;2023-01-29T03:33:03;102641.47;;;5.57;100.00
17855;BME280;9053;53.358;6.382;2023-01-29T03:35:37;102643.94;;;5.55;100.00
17855;BME280;9053;53.358;6.382;2023-01-29T03:38:10;102637.03;;;5.56;100.00
17855;BME280;9053;53.358;6.382;2023-01-29T03:40:49;102646.41;;;5.54;100.00
17855;BME280;9053;53.358;6.382;2023-01-29T03:43:28;102653.34;;;5.53;100.00
17855;BME280;9053;53.358;6.382;2023-01-29T03:46:05;102643.81;;;5.54;100.00
17855;BME280;9053;53.358;6.382;2023-01-29T03:48:45;102641.19;;;5.54;100.00
17855;BME280;9053;53.358;6.382;2023-01-29T03:51:23;102640.28;;;5.53;100.00
17855;BME280;9053;53.358;6.382;2023-01-29T03:54:03;102649.03;;;5.54;100.00
17855;BME280;9053;53.358;6.382;2023-01-29T03:56:44;102648.91;;;5.52;100.00
17855;BME280;9053;53.358;6.382;2023-01-29T03:59:24;102648.91;;;5.52;100.00
17855;BME280;9053;53.358;6.382;2023-01-29T04:02:02;102649.69;;;5.51;100.00
17855;BME280;9053;53.358;6.382;2023-01-29T04:04:37;102653.34;;;5.53;100.00
17855;BME280;9053;53.358;6.382;2023-01-29T04:07:11;102655.03;;;5.53;100.00
17855;BME280;9053;53.358;6.382;2023-01-29T04:09:48;102654.25;;;5.54;100.00
17855;BME280;9053;53.358;6.382;2023-01-29T04:12:25;102651.63;;;5.54;100.00
17855;BME280;9053;53.358;6.382;2023-01-29T04:14:56;102652.28;;;5.51;100.00
17855;BME280;9053;53.358;6.382;2023-01-29T04:17:32;102648.91;;;5.52;100.00
17855;BME280;9053;53.358;6.382;2023-01-29T04:20:07;102638.47;;;5.52;100.00
17855;BME280;9053;53.358;6.382;2023-01-29T04:22:39;102643.56;;;5.51;100.00
17855;BME280;9053;53.358;6.382;2023-01-29T04:25:10;102647.06;;;5.51;100.00
17855;BME280;9053;53.358;6.382;2023-01-29T04:27:50;102646.16;;;5.51;100.00
17855;BME280;9053;53.358;6.382;2023-01-29T04:30:26;102652.28;;;5.51;100.00
17855;BME280;9053;53.358;6.382;2023-01-29T04:33:12;102651.25;;;5.49;100.00
17855;BME280;9053;53.358;6.382;2023-01-29T04:35:57;102655.69;;;5.50;100.00
17855;BME280;9053;53.358;6.382;2023-01-29T04:38:40;102654.78;;;5.50;100.00
17855;BME280;9053;53.358;6.382;2023-01-29T04:41:18;102661.81;;;5.51;100.00
17855;BME280;9053;53.358;6.382;2023-01-29T04:43:58;102663.63;;;5.52;100.00
17855;BME280;9053;53.358;6.382;2023-01-29T04:46:34;102653.19;;;5.52;100.00
17855;BME280;9053;53.358;6.382;2023-01-29T04:49:14;102654.13;;;5.52;100.00
17855;BME280;9053;53.358;6.382;2023-01-29T04:51:57;102641.84;;;5.51;100.00
17855;BME280;9053;53.358;6.382;2023-01-29T04:54:39;102624.63;;;5.53;100.00
17855;BME280;9053;53.358;6.382;2023-01-29T04:57:16;102620.31;;;5.54;100.00
17855;BME280;9053;53.358;6.382;2023-01-29T04:59:53;102605.56;;;5.54;100.00
17855;BME280;9053;53.358;6.382;2023-01-29T05:02:26;102604.78;;;5.55;100.00
17855;BME280;9053;53.358;6.382;2023-01-29T05:04:57;102606.59;;;5.56;100.00
17855;BME280;9053;53.358;6.382;2023-01-29T05:07:32;102604.00;;;5.56;100.00
17855;BME280;9053;53.358;6.382;2023-01-29T05:10:05;102604.94;;;5.57;100.00
17855;BME280;9053;53.358;6.382;2023-01-29T05:12:36;102609.22;;;5.56;100.00
17855;BME280;9053;53.358;6.382;2023-01-29T05:15:11;102604.00;;;5.56;100.00
17855;BME280;9053;53.358;6.382;2023-01-29T05:17:43;102609.09;;;5.55;100.00
17855;BME280;9053;53.358;6.382;2023-01-29T05:20:13;102593.44;;;5.55;100.00
17855;BME280;9053;53.358;6.382;2023-01-29T05:22:46;102588.34;;;5.56;100.00
17855;BME280;9053;53.358;6.382;2023-01-29T05:25:22;102596.31;;;5.58;100.00
17855;BME280;9053;53.358;6.382;2023-01-29T05:27:52;102591.88;;;5.57;100.00
17855;BME280;9053;53.358;6.382;2023-01-29T05:30:35;102589.28;;;5.57;100.00
17855;BME280;9053;53.358;6.382;2023-01-29T05:33:11;102584.97;;;5.57;100.00
17855;BME280;9053;53.358;6.382;2023-01-29T05:35:41;102584.81;;;5.56;100.00
17855;BME280;9053;53.358;6.382;2023-01-29T05:38:17;102570.88;;;5.55;100.00
17855;BME280;9053;53.358;6.382;2023-01-29T05:40:47;102551.56;;;5.53;100.00
17855;BME280;9053;53.358;6.382;2023-01-29T05:43:19;102554.97;;;5.52;100.00
17855;BME280;9053;53.358;6.382;2023-01-29T05:45:53;102562.78;;;5.52;100.00
17855;BME280;9053;53.358;6.382;2023-01-29T05:48:24;102546.19;;;5.52;100.00
17855;BME280;9053;53.358;6.382;2023-01-29T05:51:01;102548.16;;;5.54;100.00
17855;BME280;9053;53.358;6.382;2023-01-29T05:53:36;102542.91;;;5.54;100.00
17855;BME280;9053;53.358;6.382;2023-01-29T05:56:07;102543.72;;;5.53;100.00
17855;BME280;9053;53.358;6.382;2023-01-29T05:58:37;102549.97;;;5.55;100.00
17855;BME280;9053;53.358;6.382;2023-01-29T06:01:09;102544.09;;;5.58;100.00
17855;BME280;9053;53.358;6.382;2023-01-29T06:03:39;102531.19;;;5.59;100.00
17855;BME280;9053;53.358;6.382;2023-01-29T06:06:09;102528.69;;;5.61;100.00
17855;BME280;9053;53.358;6.382;2023-01-29T06:08:42;102536.66;;;5.62;100.00
17855;BME280;9053;53.358;6.382;2023-01-29T06:11:13;102537.56;;;5.63;100.00
17855;BME280;9053;53.358;6.382;2023-01-29T06:13:44;102533.13;;;5.62;100.00
17855;BME280;9053;53.358;6.382;2023-01-29T06:16:14;102534.03;;;5.62;100.00
17855;BME280;9053;53.358;6.382;2023-01-29T06:18:45;102534.03;;;5.62;100.00
17855;BME280;9053;53.358;6.382;2023-01-29T06:21:17;102527.13;;;5.63;100.00
17855;BME280;9053;53.358;6.382;2023-01-29T06:23:52;102519.28;;;5.63;100.00
17855;BME280;9053;53.358;6.382;2023-01-29T06:26:23;102513.03;;;5.61;100.00
17855;BME280;9053;53.358;6.382;2023-01-29T06:28:54;102517.34;;;5.60;100.00
17855;BME280;9053;53.358;6.382;2023-01-29T06:31:24;102518.13;;;5.59;100.00
17855;BME280;9053;53.358;6.382;2023-01-29T06:34:04;102525.97;;;5.59;100.00
17855;BME280;9053;53.358;6.382;2023-01-29T06:36:37;102524.25;;;5.60;100.00
17855;BME280;9053;53.358;6.382;2023-01-29T06:39:11;102535.75;;;5.62;100.00
17855;BME280;9053;53.358;6.382;2023-01-29T06:41:41;102535.75;;;5.62;100.00
17855;BME280;9053;53.358;6.382;2023-01-29T06:44:13;102525.31;;;5.62;100.00
17855;BME280;9053;53.358;6.382;2023-01-29T06:46:44;102527.25;;;5.64;100.00
17855;BME280;9053;53.358;6.382;2023-01-29T06:49:14;102527.25;;;5.64;100.00
17855;BME280;9053;53.358;6.382;2023-01-29T06:51:44;102522.13;;;5.66;100.00
17855;BME280;9053;53.358;6.382;2023-01-29T06:54:17;102514.44;;;5.68;100.00
17855;BME280;9053;53.358;6.382;2023-01-29T06:56:47;102509.22;;;5.68;100.00
17855;BME280;9053;53.358;6.382;2023-01-29T06:59:17;102504.00;;;5.68;100.00
17855;BME280;9053;53.358;6.382;2023-01-29T07:01:47;102505.56;;;5.66;100.00
17855;BME280;9053;53.358;6.382;2023-01-29T07:04:16;102503.63;;;5.63;100.00
17855;BME280;9053;53.358;6.382;2023-01-29T07:06:46;102487.97;;;5.63;100.00
17855;BME280;9053;53.358;6.382;2023-01-29T07:09:19;102489.66;;;5.62;100.00
17855;BME280;9053;53.358;6.382;2023-01-29T07:11:49;102493.03;;;5.61;100.00
17855;BME280;9053;53.358;6.382;2023-01-29T07:14:19;102484.22;;;5.59;100.00
17855;BME280;9053;53.358;6.382;2023-01-29T07:16:48;102484.22;;;5.59;100.00
17855;BME280;9053;53.358;6.382;2023-01-29T07:19:18;102487.59;;;5.58;100.00
17855;BME280;9053;53.358;6.382;2023-01-29T07:21:49;102482.13;;;5.55;100.00
17855;BME280;9053;53.358;6.382;2023-01-29T07:24:22;102474.28;;;5.55;100.00
17855;BME280;9053;53.358;6.382;2023-01-29T07:26:52;102478.72;;;5.56;100.00
17855;BME280;9053;53.358;6.382;2023-01-29T07:29:22;102475.06;;;5.54;100.00
17855;BME280;9053;53.358;6.382;2023-01-29T07:31:52;102466.47;;;5.55;100.00
17855;BME280;9053;53.358;6.382;2023-01-29T07:34:23;102469.84;;;5.54;100.00
17855;BME280;9053;53.358;6.382;2023-01-29T07:36:53;102474.16;;;5.54;100.00
17855;BME280;9053;53.358;6.382;2023-01-29T07:39:25;102476.66;;;5.52;100.00
17855;BME280;9053;53.358;6.382;2023-01-29T07:41:55;102480.03;;;5.51;100.00
17855;BME280;9053;53.358;6.382;2023-01-29T07:44:25;102480.94;;;5.52;100.00
17855;BME280;9053;53.358;6.382;2023-01-29T07:46:55;102475.63;;;5.50;100.00
17855;BME280;9053;53.358;6.382;2023-01-29T07:49:25;102486.84;;;5.49;100.00
17855;BME280;9053;53.358;6.382;2023-01-29T07:51:55;102481.75;;;5.51;100.00
17855;BME280;9053;53.358;6.382;2023-01-29T07:54:27;102487.88;;;5.51;100.00
17855;BME280;9053;53.358;6.382;2023-01-29T07:56:57;102486.06;;;5.50;100.00
17855;BME280;9053;53.358;6.382;2023-01-29T07:59:27;102485.25;;;5.51;100.00
17855;BME280;9053;53.358;6.382;2023-01-29T08:01:57;102477.69;;;5.54;100.00
17855;BME280;9053;53.358;6.382;2023-01-29T08:04:27;102475.06;;;5.54;100.00
17855;BME280;9053;53.358;6.382;2023-01-29T08:06:57;102479.66;;;5.57;100.00
17855;BME280;9053;53.358;6.382;2023-01-29T08:09:30;102465.81;;;5.58;100.00
17855;BME280;9053;53.358;6.382;2023-01-29T08:12:00;102477.94;;;5.57;100.00
17855;BME280;9053;53.358;6.382;2023-01-29T08:14:29;102468.53;;;5.59;100.00
17855;BME280;9053;53.358;6.382;2023-01-29T08:16:59;102458.09;;;5.59;100.00
17855;BME280;9053;53.358;6.382;2023-01-29T08:19:29;102457.16;;;5.59;100.00
17855;BME280;9053;53.358;6.382;2023-01-29T08:21:59;102458.09;;;5.59;100.00
17855;BME280;9053;53.358;6.382;2023-01-29T08:24:32;102462.66;;;5.62;100.00
17855;BME280;9053;53.358;6.382;2023-01-29T08:27:22;102458.44;;;5.64;100.00
17855;BME280;9053;53.358;6.382;2023-01-29T08:29:52;102452.47;;;5.65;100.00
17855;BME280;9053;53.358;6.382;2023-01-29T08:32:21;102456.78;;;5.64;100.00
17855;BME280;9053;53.358;6.382;2023-01-29T08:34:51;102449.94;;;5.67;100.00
17855;BME280;9053;53.358;6.382;2023-01-29T08:37:21;102447.34;;;5.67;100.00
17855;BME280;9053;53.358;6.382;2023-01-29T08:39:53;102447.47;;;5.68;100.00
17855;BME280;9053;53.358;6.382;2023-01-29T08:42:23;102443.94;;;5.68;100.00
17855;BME280;9053;53.358;6.382;2023-01-29T08:44:53;102449.28;;;5.69;100.00
17855;BME280;9053;53.358;6.382;2023-01-29T08:47:23;102444.84;;;5.68;100.00
17855;BME280;9053;53.358;6.382;2023-01-29T08:49:55;102434.28;;;5.67;100.00
17855;BME280;9053;53.358;6.382;2023-01-29T08:52:25;102442.25;;;5.68;100.00
17855;BME280;9053;53.358;6.382;2023-01-29T08:54:57;102434.56;;;5.70;100.00
17855;BME280;9053;53.358;6.382;2023-01-29T08:57:30;102430.22;;;5.70;100.00
17855;BME280;9053;53.358;6.382;2023-01-29T09:00:00;102432.03;;;5.71;100.00
17855;BME280;9053;53.358;6.382;2023-01-29T09:02:30;102425.09;;;5.72;100.00
17855;BME280;9053;53.358;6.382;2023-01-29T09:05:00;102429.66;;;5.74;100.00
17855;BME280;9053;53.358;6.382;2023-01-29T09:07:30;102417.53;;;5.75;100.00
17855;BME280;9053;53.358;6.382;2023-01-29T09:10:02;102416.75;;;5.76;100.00
17855;BME280;9053;53.358;6.382;2023-01-29T09:12:32;102418.69;;;5.78;100.00
17855;BME280;9053;53.358;6.382;2023-01-29T09:15:03;102414.50;;;5.80;100.00
17855;BME280;9053;53.358;6.382;2023-01-29T09:17:33;102416.44;;;5.83;100.00
17855;BME280;9053;53.358;6.382;2023-01-29T09:20:03;102418.25;;;5.84;100.00
17855;BME280;9053;53.358;6.382;2023-01-29T09:22:35;102430.53;;;5.85;100.00
17855;BME280;9053;53.358;6.382;2023-01-29T09:25:08;102428.91;;;5.87;100.00
17855;BME280;9053;53.358;6.382;2023-01-29T09:27:38;102426.31;;;5.87;100.00
17855;BME280;9053;53.358;6.382;2023-01-29T09:30:10;102422.69;;;5.85;100.00
17855;BME280;9053;53.358;6.382;2023-01-29T09:32:40;102417.56;;;5.86;100.00
17855;BME280;9053;53.358;6.382;2023-01-29T09:35:19;102424.72;;;5.89;100.00
17855;BME280;9053;53.358;6.382;2023-01-29T09:37:49;102416.00;;;5.89;100.00
17855;BME280;9053;53.358;6.382;2023-01-29T09:40:33;102408.16;;;5.89;100.00
17855;BME280;9053;53.358;6.382;2023-01-29T09:43:08;102401.22;;;5.89;100.00
17855;BME280;9053;53.358;6.382;2023-01-29T09:45:51;102407.41;;;5.90;100.00
17855;BME280;9053;53.358;6.382;2023-01-29T09:48:25;102396.81;;;5.88;100.00
17855;BME280;9053;53.358;6.382;2023-01-29T09:50:58;102379.31;;;5.87;100.00
17855;BME280;9053;53.358;6.382;2023-01-29T09:53:35;102381.28;;;5.90;100.00
17855;BME280;9053;53.358;6.382;2023-01-29T09:56:13;102395.25;;;5.90;100.00
17855;BME280;9053;53.358;6.382;2023-01-29T09:58:45;102381.28;;;5.90;100.00
17855;BME280;9053;53.358;6.382;2023-01-29T10:01:21;102390.91;;;5.91;100.00
17855;BME280;9053;53.358;6.382;2023-01-29T10:04:10;102391.19;;;5.94;100.00
17855;BME280;9053;53.358;6.382;2023-01-29T10:06:53;102392.09;;;5.94;100.00
17855;BME280;9053;53.358;6.382;2023-01-29T10:09:55;102394.69;;;5.94;100.00
17855;BME280;9053;53.358;6.382;2023-01-29T10:12:42;102382.41;;;5.93;100.00
17855;BME280;9053;53.358;6.382;2023-01-29T10:15:26;102386.09;;;5.95;100.00
17855;BME280;9053;53.358;6.382;2023-01-29T10:18:09;102379.03;;;5.94;100.00
17855;BME280;9053;53.358;6.382;2023-01-29T10:20:55;102378.34;;;5.97;100.00
17855;BME280;9053;53.358;6.382;2023-01-29T10:23:26;102371.47;;;5.97;100.00
17855;BME280;9053;53.358;6.382;2023-01-29T10:26:00;102366.22;;;5.97;100.00
17855;BME280;9053;53.358;6.382;2023-01-29T10:28:36;102370.66;;;5.98;100.00
17855;BME280;9053;53.358;6.382;2023-01-29T10:31:12;102369.63;;;5.96;100.00
17855;BME280;9053;53.358;6.382;2023-01-29T10:33:47;102365.44;;;5.98;100.00
17855;BME280;9053;53.358;6.382;2023-01-29T10:36:33;102354.84;;;5.97;100.00
17855;BME280;9053;53.358;6.382;2023-01-29T10:39:04;102349.53;;;5.95;100.00
17855;BME280;9053;53.358;6.382;2023-01-29T10:44:45;102340.88;;;5.96;100.00
17855;BME280;9053;53.358;6.382;2023-01-29T10:50:40;102324.31;;;5.96;100.00
17855;BME280;9053;53.358;6.382;2023-01-29T10:53:26;102312.28;;;5.98;100.00
17855;BME280;9053;53.358;6.382;2023-01-29T10:56:04;102312.16;;;5.96;100.00
17855;BME280;9053;53.358;6.382;2023-01-29T10:58:50;102310.44;;;5.97;100.00
17855;BME280;9053;53.358;6.382;2023-01-29T11:01:23;102306.16;;;5.97;100.00
17855;BME280;9053;53.358;6.382;2023-01-29T11:03:58;102293.09;;;5.97;100.00
17855;BME280;9053;53.358;6.382;2023-01-29T11:06:31;102297.53;;;5.98;100.00
17855;BME280;9053;53.358;6.382;2023-01-29T11:09:05;102291.50;;;5.99;100.00
17855;BME280;9053;53.358;6.382;2023-01-29T11:11:40;102295.13;;;6.01;100.00
17855;BME280;9053;53.358;6.382;2023-01-29T11:14:14;102282.88;;;6.00;100.00
17855;BME280;9053;53.358;6.382;2023-01-29T11:16:48;102276.97;;;6.03;100.00
17855;BME280;9053;53.358;6.382;2023-01-29T11:19:20;102280.50;;;6.03;100.00
17855;BME280;9053;53.358;6.382;2023-01-29T11:22:04;102277.88;;;6.03;100.00
17855;BME280;9053;53.358;6.382;2023-01-29T11:24:40;102277.06;;;6.04;100.00
17855;BME280;9053;53.358;6.382;2023-01-29T11:27:14;102271.06;;;6.05;100.00
17855;BME280;9053;53.358;6.382;2023-01-29T11:29:52;102271.16;;;6.07;100.00
17855;BME280;9053;53.358;6.382;2023-01-29T11:32:29;102257.56;;;6.11;100.00
17855;BME280;9053;53.358;6.382;2023-01-29T11:35:03;102261.19;;;6.13;100.00
17855;BME280;9053;53.358;6.382;2023-01-29T11:37:35;102267.69;;;6.18;100.00
17855;BME280;9053;53.358;6.382;2023-01-29T11:40:33;102253.94;;;6.21;100.00
17855;BME280;9053;53.358;6.382;2023-01-29T11:43:12;102250.63;;;6.23;100.00
17855;BME280;9053;53.358;6.382;2023-01-29T11:45:42;102255.19;;;6.26;100.00
17855;BME280;9053;53.358;6.382;2023-01-29T11:48:17;102254.63;;;6.30;100.00
17855;BME280;9053;53.358;6.382;2023-01-29T11:50:52;102244.25;;;6.32;100.00
17855;BME280;9053;53.358;6.382;2023-01-29T11:53:36;102243.56;;;6.34;100.00
17855;BME280;9053;53.358;6.382;2023-01-29T11:56:20;102222.66;;;6.34;100.00
17855;BME280;9053;53.358;6.382;2023-01-29T11:58:52;102226.19;;;6.35;100.00
17855;BME280;9053;53.358;6.382;2023-01-29T12:01:29;102219.38;;;6.37;100.00
17855;BME280;9053;53.358;6.382;2023-01-29T12:04:15;102213.47;;;6.39;100.00
17855;BME280;9053;53.358;6.382;2023-01-29T12:06:48;102208.22;;;6.39;100.00
17855;BME280;9053;53.358;6.382;2023-01-29T12:09:21;102215.28;;;6.40;100.00
17855;BME280;9053;53.358;6.382;2023-01-29T12:11:53;102193.44;;;6.40;100.00
17855;BME280;9053;53.358;6.382;2023-01-29T12:14:27;102190.84;;;6.40;100.00
17855;BME280;9053;53.358;6.382;2023-01-29T12:17:02;102175.28;;;6.41;100.00
17855;BME280;9053;53.358;6.382;2023-01-29T12:19:41;102168.34;;;6.42;100.00
17855;BME280;9053;53.358;6.382;2023-01-29T12:22:17;102164.13;;;6.44;100.00
17855;BME280;9053;53.358;6.382;2023-01-29T12:24:52;102152.09;;;6.46;100.00
17855;BME280;9053;53.358;6.382;2023-01-29T12:27:28;102139.81;;;6.45;100.00
17855;BME280;9053;53.358;6.382;2023-01-29T12:30:04;102139.13;;;6.47;100.00
17855;BME280;9053;53.358;6.382;2023-01-29T12:32:43;102130.50;;;6.48;100.00
17855;BME280;9053;53.358;6.382;2023-01-29T12:35:23;102136.63;;;6.49;100.00
17855;BME280;9053;53.358;6.382;2023-01-29T12:37:59;102126.28;;;6.50;100.00
17855;BME280;9053;53.358;6.382;2023-01-29T12:40:37;102116.81;;;6.53;100.00
17855;BME280;9053;53.358;6.382;2023-01-29T12:43:13;102110.00;;;6.55;100.00
17855;BME280;9053;53.358;6.382;2023-01-29T12:45:48;102110.81;;;6.54;100.00
17855;BME280;9053;53.358;6.382;2023-01-29T12:48:23;102102.84;;;6.52;100.00
17855;BME280;9053;53.358;6.382;2023-01-29T12:51:03;102106.28;;;6.51;100.00
17855;BME280;9053;53.358;6.382;2023-01-29T12:53:38;102101.84;;;6.50;100.00
17855;BME280;9053;53.358;6.382;2023-01-29T12:56:12;102095.72;;;6.49;100.00
17855;BME280;9053;53.358;6.382;2023-01-29T12:58:47;102093.91;;;6.48;100.00
17855;BME280;9053;53.358;6.382;2023-01-29T13:01:25;102086.63;;;6.44;100.00
17855;BME280;9053;53.358;6.382;2023-01-29T13:03:59;102084.84;;;6.43;100.00
17855;BME280;9053;53.358;6.382;2023-01-29T13:06:38;102077.78;;;6.42;100.00
17855;BME280;9053;53.358;6.382;2023-01-29T13:09:13;102081.22;;;6.41;100.00
17855;BME280;9053;53.358;6.382;2023-01-29T13:11:49;102087.34;;;6.42;100.00
17855;BME280;9053;53.358;6.382;2023-01-29T13:14:23;102075.16;;;6.42;100.00
17855;BME280;9053;53.358;6.382;2023-01-29T13:17:01;102076.09;;;6.43;100.00
17855;BME280;9053;53.358;6.382;2023-01-29T13:19:39;102070.97;;;6.44;100.00
17855;BME280;9053;53.358;6.382;2023-01-29T13:22:18;102071.97;;;6.46;100.00
17855;BME280;9053;53.358;6.382;2023-01-29T13:24:49;102061.41;;;6.45;100.00
17855;BME280;9053;53.358;6.382;2023-01-29T13:27:32;102062.44;;;6.47;100.00
17855;BME280;9053;53.358;6.382;2023-01-29T13:30:04;102061.66;;;6.48;100.00
17855;BME280;9053;53.358;6.382;2023-01-29T13:32:34;102046.75;;;6.47;100.00
17855;BME280;9053;53.358;6.382;2023-01-29T13:35:12;102044.94;;;6.46;100.00
17855;BME280;9053;53.358;6.382;2023-01-29T13:37:49;102029.34;;;6.47;100.00
17855;BME280;9053;53.358;6.382;2023-01-29T13:40:23;102022.44;;;6.48;100.00
17855;BME280;9053;53.358;6.382;2023-01-29T13:42:54;102025.06;;;6.48;100.00
17855;BME280;9053;53.358;6.382;2023-01-29T13:45:29;102031.19;;;6.48;100.00
17855;BME280;9053;53.358;6.382;2023-01-29T13:48:09;102023.22;;;6.47;100.00